Time;durP1;ratioP1;P1;durP2;ratioP2;P2;SDS_P1;SDS_P2;PMS_P1;PMS_P2;Temp;Humidity;BMP_temperature;BMP_pressure;BME280_temperature;BME280_humidity;BME280_pressure;Samples;Min_cycle;Max_cycle;Signal;HPM_P1;HPM_P2
2023/09/23 05:58:50;;;;;;;;;1.00;1.00;;;;;;;;6249206;22;45472;-76
2023/09/23 06:01:15;;;;;;;;;2.75;1.00;;;;;;;;6308493;22;45217;-77
2023/09/23 06:03:41;;;;;;;;;3.00;1.00;;;;;;;;6308496;22;45170;-78
2023/09/23 06:06:06;;;;;;;;;2.25;1.00;;;;;;;;6309213;22;45172;-79
2023/09/23 06:08:31;;;;;;;;;2.00;1.00;;;;;;;;6280598;22;45555;-79
2023/09/23 06:11:00;;;;;;;;;2.00;0.50;;;;;;;;6280486;22;47150;-79
2023/09/23 06:13:25;;;;;;;;;2.00;0.75;;;;;;;;6308345;22;45329;-77
2023/09/23 06:15:52;;;;;;;;;1.00;1.00;;;;;;;;6308793;22;45294;-79
2023/09/23 06:18:18;;;;;;;;;0.75;0.75;;;;;;;;6309027;22;45302;-77
2023/09/23 06:20:43;;;;;;;;;0.75;0.75;;;;;;;;6309325;22;45213;-77
2023/09/23 06:23:08;;;;;;;;;1.25;1.00;;;;;;;;6308718;22;45131;-78
2023/09/23 06:25:33;;;;;;;;;1.00;1.00;;;;;;;;6309185;22;45417;-77
2023/09/23 06:27:58;;;;;;;;;4.00;3.00;;;;;;;;6308277;22;45154;-79
2023/09/23 06:30:23;;;;;;;;;2.50;2.50;;;;;;;;6308912;22;45297;-79
2023/09/23 06:32:49;;;;;;;;;1.75;1.75;;;;;;;;6308273;22;45243;-76
2023/09/23 06:35:14;;;;;;;;;2.50;1.50;;;;;;;;6309181;22;45121;-76
2023/09/23 06:37:39;;;;;;;;;1.50;1.00;;;;;;;;6279788;22;45196;-78
2023/09/23 06:40:05;;;;;;;;;2.00;2.00;;;;;;;;6308782;22;45102;-78
2023/09/23 06:42:30;;;;;;;;;1.00;1.00;;;;;;;;6308565;22;45247;-77
2023/09/23 06:44:55;;;;;;;;;1.50;1.50;;;;;;;;6309201;22;45097;-77
2023/09/23 06:47:20;;;;;;;;;4.50;3.00;;;;;;;;6279996;22;45646;-77
2023/09/23 06:49:46;;;;;;;;;1.25;1.00;;;;;;;;6280920;22;46644;-76
2023/09/23 06:52:12;;;;;;;;;4.25;1.00;;;;;;;;6308833;22;45178;-77
2023/09/23 06:54:37;;;;;;;;;1.00;1.00;;;;;;;;6308793;22;45377;-77
2023/09/23 06:57:02;;;;;;;;;1.75;1.75;;;;;;;;6308166;22;45272;-78
2023/09/23 06:59:27;;;;;;;;;1.50;1.50;;;;;;;;6307450;22;45362;-76
2023/09/23 07:01:52;;;;;;;;;2.50;2.00;;;;;;;;6309178;22;45267;-77
2023/09/23 07:04:18;;;;;;;;;2.00;2.00;;;;;;;;6308569;22;45420;-77
2023/09/23 07:06:43;;;;;;;;;1.00;1.00;;;;;;;;6308972;22;45532;-78
2023/09/23 07:09:08;;;;;;;;;2.67;2.67;;;;;;;;6280254;22;47389;-78
2023/09/23 07:11:33;;;;;;;;;1.33;1.00;;;;;;;;6309248;22;45284;-76
2023/09/23 07:14:00;;;;;;;;;1.00;1.00;;;;;;;;6308195;22;45233;-77
2023/09/23 07:16:26;;;;;;;;;2.00;1.00;;;;;;;;6281065;22;47061;-75
2023/09/23 07:18:51;;;;;;;;;2.33;2.33;;;;;;;;6307972;22;45793;-78
2023/09/23 07:21:17;;;;;;;;;2.00;2.00;;;;;;;;6309036;22;45188;-79
2023/09/23 07:23:42;;;;;;;;;1.67;1.67;;;;;;;;6308711;22;45212;-79
2023/09/23 07:26:07;;;;;;;;;4.00;4.00;;;;;;;;6308820;22;45217;-80
2023/09/23 07:28:32;;;;;;;;;2.00;2.00;;;;;;;;6279775;22;47972;-82
2023/09/23 07:30:58;;;;;;;;;3.00;2.00;;;;;;;;6308950;22;45227;-84
2023/09/23 07:33:23;;;;;;;;;5.00;3.67;;;;;;;;6280571;22;45172;-76
2023/09/23 07:35:48;;;;;;;;;1.00;0.00;;;;;;;;6308508;22;45299;-77
2023/09/23 07:38:13;;;;;;;;;3.00;2.67;;;;;;;;6308165;22;45297;-82
2023/09/23 07:40:39;;;;;;;;;1.33;1.33;;;;;;;;6280206;22;45274;-80
2023/09/23 07:43:05;;;;;;;;;5.67;2.00;;;;;;;;6308342;22;45204;-80
2023/09/23 07:45:30;;;;;;;;;3.33;1.00;;;;;;;;6308677;22;45419;-80
2023/09/23 07:47:55;;;;;;;;;3.00;3.00;;;;;;;;6307974;22;46131;-79
2023/09/23 07:50:21;;;;;;;;;3.33;2.33;;;;;;;;6280219;22;45205;-79
2023/09/23 07:52:46;;;;;;;;;1.00;1.00;;;;;;;;6308420;22;45218;-80
2023/09/23 07:55:12;;;;;;;;;2.33;1.33;;;;;;;;6308414;22;45437;-81
2023/09/23 07:57:37;;;;;;;;;2.33;1.67;;;;;;;;6307608;22;46481;-81
2023/09/23 08:00:03;;;;;;;;;2.67;2.00;;;;;;;;6279549;22;45262;-80
2023/09/23 08:02:29;;;;;;;;;3.00;1.00;;;;;;;;6280320;22;45204;-81
2023/09/23 08:04:54;;;;;;;;;4.00;2.00;;;;;;;;6280024;22;45537;-81
2023/09/23 08:07:19;;;;;;;;;2.00;2.00;;;;;;;;6279790;22;46883;-80
2023/09/23 08:09:44;;;;;;;;;1.00;1.00;;;;;;;;6308175;22;45274;-79
2023/09/23 08:12:10;;;;;;;;;2.00;2.00;;;;;;;;6280603;22;45173;-79
2023/09/23 08:14:35;;;;;;;;;1.00;1.00;;;;;;;;6280174;22;45713;-80
2023/09/23 08:17:01;;;;;;;;;1.67;1.00;;;;;;;;6308453;22;45389;-81
2023/09/23 08:19:26;;;;;;;;;1.00;1.00;;;;;;;;6308004;22;45250;-80
2023/09/23 08:21:51;;;;;;;;;2.00;2.00;;;;;;;;6280723;22;45335;-80
2023/09/23 08:24:17;;;;;;;;;1.67;1.00;;;;;;;;6308337;22;45232;-80
2023/09/23 08:26:42;;;;;;;;;4.33;2.00;;;;;;;;6308488;22;45312;-79
2023/09/23 08:29:07;;;;;;;;;0.33;0.33;;;;;;;;6307791;22;45157;-80
2023/09/23 08:31:32;;;;;;;;;3.33;1.00;;;;;;;;6308805;22;45230;-81
2023/09/23 08:33:58;;;;;;;;;1.00;1.00;;;;;;;;6279983;22;46055;-80
2023/09/23 08:36:24;;;;;;;;;2.67;0.00;;;;;;;;6279699;22;46827;-81
2023/09/23 08:38:49;;;;;;;;;2.00;0.67;;;;;;;;6308169;22;45295;-81
2023/09/23 08:41:16;;;;;;;;;2.00;0.67;;;;;;;;6280449;22;45224;-80
2023/09/23 08:43:42;;;;;;;;;1.00;1.00;;;;;;;;6307646;22;45495;-81
2023/09/23 08:46:09;;;;;;;;;0.00;0.00;;;;;;;;6308144;22;45366;-79
2023/09/23 08:48:35;;;;;;;;;1.67;0.67;;;;;;;;6308766;22;45224;-79
2023/09/23 08:51:02;;;;;;;;;1.00;1.00;;;;;;;;6281379;22;45421;-79
2023/09/23 08:53:27;;;;;;;;;3.00;1.33;;;;;;;;6309277;22;45370;-78
2023/09/23 08:55:53;;;;;;;;;1.00;1.00;;;;;;;;6309457;22;45086;-79
2023/09/23 08:58:19;;;;;;;;;3.00;0.33;;;;;;;;6308415;22;45161;-76
2023/09/23 09:00:46;;;;;;;;;4.00;1.00;;;;;;;;6309671;22;45207;-77
2023/09/23 09:03:12;;;;;;;;;0.00;0.00;;;;;;;;6281013;22;45977;-77
2023/09/23 09:05:38;;;;;;;;;1.00;1.00;;;;;;;;6309034;22;45203;-77
2023/09/23 09:08:04;;;;;;;;;0.00;0.00;;;;;;;;6309107;22;45294;-77
2023/09/23 09:10:30;;;;;;;;;1.00;1.00;;;;;;;;6309598;22;45299;-78
2023/09/23 09:12:55;;;;;;;;;0.33;0.33;;;;;;;;6308684;22;45220;-76
2023/09/23 09:15:21;;;;;;;;;1.00;0.67;;;;;;;;6309335;22;45318;-76
2023/09/23 09:17:46;;;;;;;;;2.33;1.00;;;;;;;;6309159;22;45209;-75
2023/09/23 09:20:12;;;;;;;;;0.00;0.00;;;;;;;;6281550;22;45394;-76
2023/09/23 09:22:38;;;;;;;;;0.33;0.33;;;;;;;;6309017;22;45227;-76
2023/09/23 09:25:07;;;;;;;;;0.00;0.00;;;;;;;;6308856;22;45431;-76
2023/09/23 09:27:34;;;;;;;;;3.00;0.33;;;;;;;;6308007;22;45227;-78
2023/09/23 09:29:59;;;;;;;;;1.33;1.33;;;;;;;;6309295;22;45294;-74
2023/09/23 09:32:29;;;;;;;;;0.67;0.67;;;;;;;;6308335;22;45286;-76
2023/09/23 09:34:54;;;;;;;;;1.00;1.00;;;;;;;;6309273;22;45570;-76
2023/09/23 09:37:23;;;;;;;;;3.00;0.00;;;;;;;;6308937;22;45240;-77
2023/09/23 09:39:56;;;;;;;;;2.00;0.67;;;;;;;;6309295;22;45402;-76
2023/09/23 09:42:33;;;;;;;;;1.33;0.67;;;;;;;;6307953;22;45382;-77
2023/09/23 09:44:58;;;;;;;;;0.33;0.33;;;;;;;;6280233;22;46559;-75
2023/09/23 09:47:23;;;;;;;;;0.33;0.33;;;;;;;;6280301;22;45244;-75
2023/09/23 09:49:52;;;;;;;;;1.67;1.67;;;;;;;;6309087;22;45188;-75
2023/09/23 09:52:21;;;;;;;;;0.33;0.33;;;;;;;;6280737;22;46035;-76
2023/09/23 09:54:47;;;;;;;;;0.67;0.67;;;;;;;;6309038;22;45264;-75
2023/09/23 09:57:13;;;;;;;;;0.00;0.00;;;;;;;;6308849;22;45230;-76
2023/09/23 09:59:41;;;;;;;;;1.00;1.00;;;;;;;;6279813;22;45198;-76
2023/09/23 10:02:07;;;;;;;;;1.00;1.00;;;;;;;;6308627;22;45400;-76
2023/09/23 10:04:32;;;;;;;;;0.67;0.67;;;;;;;;6308197;22;45402;-76
2023/09/23 10:06:58;;;;;;;;;2.67;0.67;;;;;;;;6309236;22;45398;-75
2023/09/23 10:09:30;;;;;;;;;4.00;1.00;;;;;;;;6309052;22;45165;-75
2023/09/23 10:11:56;;;;;;;;;0.00;0.00;;;;;;;;6308462;22;45243;-77
2023/09/23 10:14:22;;;;;;;;;3.00;0.00;;;;;;;;6308066;22;45998;-76
2023/09/23 10:16:51;;;;;;;;;2.00;1.00;;;;;;;;6308536;22;45263;-75
2023/09/23 10:19:27;;;;;;;;;1.00;0.67;;;;;;;;6309082;22;45228;-75
2023/09/23 10:21:52;;;;;;;;;0.67;0.67;;;;;;;;6308961;22;45329;-75
2023/09/23 10:24:21;;;;;;;;;1.00;1.00;;;;;;;;6308667;22;46577;-74
2023/09/23 10:26:46;;;;;;;;;1.00;0.00;;;;;;;;6308913;22;45269;-74
2023/09/23 10:29:11;;;;;;;;;0.00;0.00;;;;;;;;6308699;22;45302;-76
2023/09/23 10:31:37;;;;;;;;;2.00;1.75;;;;;;;;6309001;22;45239;-75
2023/09/23 10:34:10;;;;;;;;;2.50;1.00;;;;;;;;6308774;22;45382;-76
2023/09/23 10:36:36;;;;;;;;;1.50;1.00;;;;;;;;6308657;22;45163;-74
2023/09/23 10:39:06;;;;;;;;;1.50;0.25;;;;;;;;6308736;22;45236;-73
2023/09/23 10:41:35;;;;;;;;;1.50;1.00;;;;;;;;6307207;22;45499;-74
2023/09/23 10:44:00;;;;;;;;;3.25;0.00;;;;;;;;6307978;22;45282;-73
2023/09/23 10:46:26;;;;;;;;;2.75;1.00;;;;;;;;6308762;22;45366;-76
2023/09/23 10:48:51;;;;;;;;;0.25;0.25;;;;;;;;6308805;22;45677;-73
2023/09/23 10:51:16;;;;;;;;;0.50;0.50;;;;;;;;6308985;22;45458;-73
2023/09/23 10:53:42;;;;;;;;;1.00;1.00;;;;;;;;6308252;22;46590;-74
2023/09/23 10:56:10;;;;;;;;;0.00;0.00;;;;;;;;6280842;22;45505;-73
2023/09/23 10:58:36;;;;;;;;;2.00;0.75;;;;;;;;6307454;22;45296;-73
2023/09/23 11:01:02;;;;;;;;;3.75;0.75;;;;;;;;6308748;22;45421;-73
2023/09/23 11:03:28;;;;;;;;;2.00;2.00;;;;;;;;6307525;22;45499;-73
2023/09/23 11:05:53;;;;;;;;;0.00;0.00;;;;;;;;6308319;22;45236;-73
2023/09/23 11:08:19;;;;;;;;;1.00;1.00;;;;;;;;6308548;22;45309;-74
2023/09/23 11:10:45;;;;;;;;;2.50;1.50;;;;;;;;6308192;22;45339;-73
2023/09/23 11:13:11;;;;;;;;;1.75;1.00;;;;;;;;6307616;22;46348;-74
2023/09/23 11:15:37;;;;;;;;;1.50;1.00;;;;;;;;6308142;22;45212;-75
2023/09/23 11:18:06;;;;;;;;;2.50;1.00;;;;;;;;6308618;22;45203;-74
2023/09/23 11:20:32;;;;;;;;;2.00;1.00;;;;;;;;6280336;22;46358;-75
2023/09/23 11:22:58;;;;;;;;;1.00;1.00;;;;;;;;6308040;22;46434;-75
2023/09/23 11:25:24;;;;;;;;;1.75;1.75;;;;;;;;6280357;22;45656;-75
2023/09/23 11:27:50;;;;;;;;;0.00;0.00;;;;;;;;6308075;22;45298;-74
2023/09/23 11:30:15;;;;;;;;;0.00;0.00;;;;;;;;6308557;22;45477;-75
2023/09/23 11:32:41;;;;;;;;;0.75;0.75;;;;;;;;6308046;22;45489;-75
2023/09/23 11:35:06;;;;;;;;;1.00;0.25;;;;;;;;6280290;22;45260;-74
2023/09/23 11:37:32;;;;;;;;;0.00;0.00;;;;;;;;6308242;22;45217;-75
2023/09/23 11:39:57;;;;;;;;;1.00;0.00;;;;;;;;6306498;22;45480;-76
2023/09/23 11:42:22;;;;;;;;;1.25;0.25;;;;;;;;6307843;22;45640;-75
2023/09/23 11:44:47;;;;;;;;;0.00;0.00;;;;;;;;6306407;22;45293;-75
2023/09/23 11:47:13;;;;;;;;;0.00;0.00;;;;;;;;6308387;22;45133;-75
2023/09/23 11:49:38;;;;;;;;;2.00;0.75;;;;;;;;6308071;22;45152;-74
2023/09/23 11:52:11;;;;;;;;;0.50;0.50;;;;;;;;6308209;22;45223;-74
2023/09/23 11:54:37;;;;;;;;;0.75;0.00;;;;;;;;6308281;22;45311;-74
2023/09/23 11:57:02;;;;;;;;;0.00;0.00;;;;;;;;6308567;22;45295;-74
2023/09/23 11:59:27;;;;;;;;;0.00;0.00;;;;;;;;6307356;22;45572;-75
2023/09/23 12:01:52;;;;;;;;;0.25;0.25;;;;;;;;6308702;22;45618;-76
2023/09/23 12:04:17;;;;;;;;;1.00;0.00;;;;;;;;6308318;22;45318;-76
2023/09/23 12:06:45;;;;;;;;;0.75;0.75;;;;;;;;6308417;22;45291;-76
2023/09/23 12:09:10;;;;;;;;;2.00;1.00;;;;;;;;6307401;22;45275;-75
2023/09/23 12:11:36;;;;;;;;;1.75;0.00;;;;;;;;6307857;22;46304;-78
2023/09/23 12:14:01;;;;;;;;;0.25;0.25;;;;;;;;6279529;22;45180;-78
2023/09/23 12:16:26;;;;;;;;;0.00;0.00;;;;;;;;6308536;22;45495;-76
2023/09/23 12:18:52;;;;;;;;;0.00;0.00;;;;;;;;6307614;22;45430;-77
2023/09/23 12:21:17;;;;;;;;;0.50;0.00;;;;;;;;6308334;22;46357;-77
2023/09/23 12:23:43;;;;;;;;;0.25;0.25;;;;;;;;6309319;22;45169;-74
2023/09/23 12:26:09;;;;;;;;;0.50;0.50;;;;;;;;6309673;22;45172;-74
2023/09/23 12:28:35;;;;;;;;;2.00;0.25;;;;;;;;6308963;22;45325;-78
2023/09/23 12:31:00;;;;;;;;;2.00;0.00;;;;;;;;6309181;22;45323;-77
2023/09/23 12:33:27;;;;;;;;;0.50;0.25;;;;;;;;6281284;22;45360;-77
2023/09/23 12:35:52;;;;;;;;;0.00;0.00;;;;;;;;6309739;22;45283;-76
2023/09/23 12:38:17;;;;;;;;;2.00;0.75;;;;;;;;6309123;22;45420;-76
2023/09/23 12:40:42;;;;;;;;;1.00;1.00;;;;;;;;6309123;22;45319;-78
2023/09/23 12:43:07;;;;;;;;;1.33;1.33;;;;;;;;6309016;22;45254;-77
2023/09/23 12:45:33;;;;;;;;;1.00;0.00;;;;;;;;6309796;22;45481;-75
2023/09/23 12:47:58;;;;;;;;;0.25;0.25;;;;;;;;6309270;22;45949;-75
2023/09/23 12:50:24;;;;;;;;;1.00;1.00;;;;;;;;6309481;22;45275;-79
2023/09/23 12:52:49;;;;;;;;;0.00;0.00;;;;;;;;6309360;22;45334;-76
2023/09/23 12:55:14;;;;;;;;;0.00;0.00;;;;;;;;6309953;22;45140;-76
2023/09/23 12:57:39;;;;;;;;;0.00;0.00;;;;;;;;6308998;22;45374;-76
2023/09/23 13:00:05;;;;;;;;;1.00;1.00;;;;;;;;6308999;22;45139;-76
2023/09/23 13:02:30;;;;;;;;;0.00;0.00;;;;;;;;6309208;22;45196;-77
2023/09/23 13:04:56;;;;;;;;;0.00;0.00;;;;;;;;6280855;22;45190;-76
2023/09/23 13:07:21;;;;;;;;;0.33;0.00;;;;;;;;6309167;22;45393;-75
2023/09/23 13:09:46;;;;;;;;;1.00;1.00;;;;;;;;6309343;22;45551;-76
2023/09/23 13:12:12;;;;;;;;;0.33;0.33;;;;;;;;6309090;22;45123;-76
2023/09/23 13:14:37;;;;;;;;;0.00;0.00;;;;;;;;6309389;22;45290;-76
2023/09/23 13:17:02;;;;;;;;;2.00;1.00;;;;;;;;6281772;22;45220;-77
2023/09/23 13:19:28;;;;;;;;;0.00;0.00;;;;;;;;6309201;22;46234;-76
2023/09/23 13:21:53;;;;;;;;;0.00;0.00;;;;;;;;6309496;22;44556;-76
2023/09/23 13:24:18;;;;;;;;;1.33;1.00;;;;;;;;6309201;22;45279;-76
2023/09/23 13:26:44;;;;;;;;;0.67;0.67;;;;;;;;6308748;22;45342;-75
2023/09/23 13:29:09;;;;;;;;;1.00;1.00;;;;;;;;6308512;22;45486;-77
2023/09/23 13:31:34;;;;;;;;;0.67;0.00;;;;;;;;6309216;22;45244;-75
2023/09/23 13:33:59;;;;;;;;;0.00;0.00;;;;;;;;6308537;22;45272;-74
2023/09/23 13:36:24;;;;;;;;;0.00;0.00;;;;;;;;6304967;22;45287;-76
2023/09/23 13:38:51;;;;;;;;;1.00;0.00;;;;;;;;6308835;22;46242;-75
2023/09/23 13:41:17;;;;;;;;;0.00;0.00;;;;;;;;6280949;22;45328;-75
2023/09/23 13:43:42;;;;;;;;;0.00;0.00;;;;;;;;6308698;22;45265;-76
2023/09/23 13:46:07;;;;;;;;;0.67;0.33;;;;;;;;6309035;22;45242;-75
2023/09/23 13:48:33;;;;;;;;;0.33;0.33;;;;;;;;6309243;22;46561;-75
2023/09/23 13:50:58;;;;;;;;;0.00;0.00;;;;;;;;6309374;22;45182;-75
2023/09/23 13:53:23;;;;;;;;;1.00;0.00;;;;;;;;6309484;22;45419;-76
2023/09/23 13:55:49;;;;;;;;;0.00;0.00;;;;;;;;6309671;22;44658;-76
2023/09/23 13:58:14;;;;;;;;;1.50;0.75;;;;;;;;6308288;22;46261;-76
2023/09/23 14:00:39;;;;;;;;;1.00;0.00;;;;;;;;6309606;22;45169;-76
2023/09/23 14:03:04;;;;;;;;;2.00;0.75;;;;;;;;6281228;22;45198;-76
2023/09/23 14:05:30;;;;;;;;;2.25;2.00;;;;;;;;6309307;22;45313;-75
2023/09/23 14:07:55;;;;;;;;;2.00;1.00;;;;;;;;6309025;22;45252;-75
2023/09/23 14:10:21;;;;;;;;;0.00;0.00;;;;;;;;6309229;22;45505;-76
2023/09/23 14:12:46;;;;;;;;;0.00;0.00;;;;;;;;6309308;22;45560;-76
2023/09/23 14:15:11;;;;;;;;;0.00;0.00;;;;;;;;6309972;22;45401;-76
2023/09/23 14:17:36;;;;;;;;;0.75;0.75;;;;;;;;6309402;22;45420;-75
2023/09/23 14:20:03;;;;;;;;;0.75;0.00;;;;;;;;6309763;22;45211;-76
2023/09/23 14:22:29;;;;;;;;;1.00;1.00;;;;;;;;6309661;22;45303;-78
2023/09/23 14:24:54;;;;;;;;;0.00;0.00;;;;;;;;6280822;22;45976;-77
2023/09/23 14:27:20;;;;;;;;;2.25;1.00;;;;;;;;6280971;22;46380;-77
2023/09/23 14:29:45;;;;;;;;;4.00;1.00;;;;;;;;6309078;22;45390;-76
2023/09/23 14:32:10;;;;;;;;;1.00;0.00;;;;;;;;6309553;22;45389;-76
2023/09/23 14:34:35;;;;;;;;;0.00;0.00;;;;;;;;6308892;22;45176;-75
2023/09/23 14:37:00;;;;;;;;;0.00;0.00;;;;;;;;6309576;22;46467;-75
2023/09/23 14:39:26;;;;;;;;;0.00;0.00;;;;;;;;6309025;22;45245;-75
2023/09/23 14:41:53;;;;;;;;;1.00;1.00;;;;;;;;6281425;22;45181;-76
2023/09/23 14:44:18;;;;;;;;;0.00;0.00;;;;;;;;6308484;22;45422;-75
2023/09/23 14:46:43;;;;;;;;;1.75;0.00;;;;;;;;6309342;22;45197;-75
2023/09/23 14:49:08;;;;;;;;;1.75;1.00;;;;;;;;6281155;22;45286;-75
2023/09/23 14:51:34;;;;;;;;;0.00;0.00;;;;;;;;6308797;22;45129;-75
2023/09/23 14:53:59;;;;;;;;;3.00;1.00;;;;;;;;6308863;22;45277;-76
2023/09/23 14:56:25;;;;;;;;;0.00;0.00;;;;;;;;6308734;22;45175;-74
2023/09/23 14:58:51;;;;;;;;;1.00;1.00;;;;;;;;6308116;22;45253;-75
2023/09/23 15:01:16;;;;;;;;;0.00;0.00;;;;;;;;6309816;22;45094;-75
2023/09/23 15:03:41;;;;;;;;;0.75;0.75;;;;;;;;6309391;22;45085;-75
2023/09/23 15:06:06;;;;;;;;;1.00;1.00;;;;;;;;6281045;22;47027;-75
2023/09/23 15:08:32;;;;;;;;;0.25;0.00;;;;;;;;6308999;22;45227;-77
2023/09/23 15:10:57;;;;;;;;;2.00;2.00;;;;;;;;6281336;22;45508;-75
2023/09/23 15:13:22;;;;;;;;;3.00;3.00;;;;;;;;6308596;22;45186;-75
2023/09/23 15:15:47;;;;;;;;;3.67;1.00;;;;;;;;6309072;22;46440;-75
2023/09/23 15:18:13;;;;;;;;;1.00;1.00;;;;;;;;6309025;22;45160;-76
2023/09/23 15:20:38;;;;;;;;;2.33;2.33;;;;;;;;6309436;22;45223;-75
2023/09/23 15:23:04;;;;;;;;;0.00;0.00;;;;;;;;6308161;22;45301;-75
2023/09/23 15:25:31;;;;;;;;;0.00;0.00;;;;;;;;6281353;22;45281;-75
2023/09/23 15:27:56;;;;;;;;;1.00;1.00;;;;;;;;6308730;22;45255;-75
2023/09/23 15:30:22;;;;;;;;;1.00;1.00;;;;;;;;6309924;22;45457;-75
2023/09/23 15:32:48;;;;;;;;;1.00;1.00;;;;;;;;6309363;22;45172;-75
2023/09/23 15:35:13;;;;;;;;;1.67;1.00;;;;;;;;6281306;22;45892;-76
2023/09/23 15:37:38;;;;;;;;;1.00;1.00;;;;;;;;6309236;22;45264;-76
2023/09/23 15:40:09;;;;;;;;;0.67;0.67;;;;;;;;6309546;22;45460;-75
2023/09/23 15:42:35;;;;;;;;;1.33;1.00;;;;;;;;6285103;22;45757;-75
2023/09/23 15:45:00;;;;;;;;;0.67;0.67;;;;;;;;6309207;22;45664;-75
2023/09/23 15:47:25;;;;;;;;;2.67;1.00;;;;;;;;6282820;22;45381;-75
2023/09/23 15:49:50;;;;;;;;;3.00;1.00;;;;;;;;6309393;22;45386;-75
2023/09/23 15:52:16;;;;;;;;;2.00;2.00;;;;;;;;6308830;22;45193;-75
2023/09/23 15:54:41;;;;;;;;;1.00;0.67;;;;;;;;6308784;22;45307;-73
2023/09/23 15:57:07;;;;;;;;;1.33;1.33;;;;;;;;6308429;22;45306;-74
2023/09/23 15:59:32;;;;;;;;;1.67;1.67;;;;;;;;6308835;22;45359;-74
2023/09/23 16:01:57;;;;;;;;;1.00;1.00;;;;;;;;6308674;22;45421;-74
2023/09/23 16:04:23;;;;;;;;;0.67;0.67;;;;;;;;6308481;22;46355;-74
2023/09/23 16:06:48;;;;;;;;;3.00;1.00;;;;;;;;6308737;22;45248;-74
2023/09/23 16:09:13;;;;;;;;;2.00;2.00;;;;;;;;6308910;22;45254;-74
2023/09/23 16:11:38;;;;;;;;;1.00;1.00;;;;;;;;6308699;22;45410;-74
2023/09/23 16:14:04;;;;;;;;;1.00;1.00;;;;;;;;6278940;22;46842;-75
2023/09/23 16:16:29;;;;;;;;;3.00;2.00;;;;;;;;6309008;22;45162;-74
2023/09/23 16:18:54;;;;;;;;;9.00;8.00;;;;;;;;6308868;22;45220;-74
2023/09/23 16:21:20;;;;;;;;;5.67;2.67;;;;;;;;6309293;22;45201;-73
2023/09/23 16:23:45;;;;;;;;;5.00;2.00;;;;;;;;6308509;22;45465;-73
2023/09/23 16:26:11;;;;;;;;;4.00;2.00;;;;;;;;6308959;22;45160;-72
2023/09/23 16:28:36;;;;;;;;;2.00;2.00;;;;;;;;6309086;22;45244;-74
2023/09/23 16:31:01;;;;;;;;;1.33;1.00;;;;;;;;6280834;22;45340;-73
2023/09/23 16:33:27;;;;;;;;;2.00;2.00;;;;;;;;6308386;22;45303;-73
2023/09/23 16:35:52;;;;;;;;;2.33;1.00;;;;;;;;6308642;22;45168;-74
2023/09/23 16:38:17;;;;;;;;;3.00;1.67;;;;;;;;6308704;22;45585;-73
2023/09/23 16:40:44;;;;;;;;;1.67;1.67;;;;;;;;6308595;22;45212;-74
2023/09/23 16:43:09;;;;;;;;;6.00;3.00;;;;;;;;6279034;22;48175;-74
2023/09/23 16:45:35;;;;;;;;;1.67;1.67;;;;;;;;6308450;22;45247;-75
2023/09/23 16:48:00;;;;;;;;;2.67;1.00;;;;;;;;6308628;22;45220;-76
2023/09/23 16:50:25;;;;;;;;;4.00;3.00;;;;;;;;6308532;22;45295;-74
2023/09/23 16:52:51;;;;;;;;;3.00;2.00;;;;;;;;6307693;22;45394;-76
2023/09/23 16:55:16;;;;;;;;;1.33;1.33;;;;;;;;6308778;22;44768;-75
2023/09/23 16:57:41;;;;;;;;;4.00;2.33;;;;;;;;6308421;22;45243;-74
2023/09/23 17:00:08;;;;;;;;;5.67;2.00;;;;;;;;6307790;22;45192;-74
2023/09/23 17:02:33;;;;;;;;;2.33;1.67;;;;;;;;6280403;22;46572;-74
2023/09/23 17:04:59;;;;;;;;;2.33;2.33;;;;;;;;6308298;22;45110;-73
2023/09/23 17:07:24;;;;;;;;;4.00;3.00;;;;;;;;6308684;22;45200;-74
2023/09/23 17:09:49;;;;;;;;;1.33;1.33;;;;;;;;6309041;22;45491;-74
2023/09/23 17:12:15;;;;;;;;;1.67;1.67;;;;;;;;6309231;22;46145;-74
2023/09/23 17:14:40;;;;;;;;;4.00;1.33;;;;;;;;6281850;22;45106;-73
2023/09/23 17:17:05;;;;;;;;;3.00;1.67;;;;;;;;6310051;22;45276;-75
2023/09/23 17:19:30;;;;;;;;;3.00;1.67;;;;;;;;6309911;22;45220;-73
2023/09/23 17:21:56;;;;;;;;;2.33;2.33;;;;;;;;6309955;22;45246;-74
2023/09/23 17:24:22;;;;;;;;;1.00;1.00;;;;;;;;6309604;22;45155;-74
2023/09/23 17:26:47;;;;;;;;;2.67;2.00;;;;;;;;6281681;22;45404;-74
2023/09/23 17:29:12;;;;;;;;;31.33;27.67;;;;;;;;6308763;22;45362;-74
2023/09/23 17:31:37;;;;;;;;;5.33;5.33;;;;;;;;6310104;22;45219;-75
2023/09/23 17:34:03;;;;;;;;;4.00;3.00;;;;;;;;6309616;22;45364;-74
2023/09/23 17:36:29;;;;;;;;;4.67;1.67;;;;;;;;6310089;22;45289;-73
2023/09/23 17:38:54;;;;;;;;;1.67;1.67;;;;;;;;6309397;22;45317;-73
2023/09/23 17:41:19;;;;;;;;;0.67;0.67;;;;;;;;6309781;22;45485;-73
2023/09/23 17:43:44;;;;;;;;;3.67;2.00;;;;;;;;6309021;22;45365;-73
2023/09/23 17:46:10;;;;;;;;;0.33;0.33;;;;;;;;6281742;22;45333;-74
2023/09/23 17:48:35;;;;;;;;;5.33;3.00;;;;;;;;6280922;22;45497;-75
2023/09/23 17:51:00;;;;;;;;;4.00;3.67;;;;;;;;6280644;22;47007;-74
2023/09/23 17:53:30;;;;;;;;;7.67;6.33;;;;;;;;6280984;22;45248;-73
2023/09/23 17:55:56;;;;;;;;;5.67;5.00;;;;;;;;6282069;22;45268;-74
2023/09/23 17:58:21;;;;;;;;;6.67;5.00;;;;;;;;6307663;22;45353;-74
2023/09/23 18:00:46;;;;;;;;;6.33;5.67;;;;;;;;6309559;22;45211;-73
2023/09/23 18:03:12;;;;;;;;;7.00;6.00;;;;;;;;6281461;22;45161;-74
2023/09/23 18:05:37;;;;;;;;;6.00;6.00;;;;;;;;6308903;22;45206;-73
2023/09/23 18:08:03;;;;;;;;;9.67;8.00;;;;;;;;6280723;22;45215;-74
2023/09/23 18:10:28;;;;;;;;;9.00;8.00;;;;;;;;6308972;22;45528;-73
2023/09/23 18:12:53;;;;;;;;;7.00;6.00;;;;;;;;6308896;22;45136;-74
2023/09/23 18:15:20;;;;;;;;;13.33;10.00;;;;;;;;6309776;22;45247;-74
2023/09/23 18:17:45;;;;;;;;;14.00;10.67;;;;;;;;6309013;22;45366;-73
2023/09/23 18:20:11;;;;;;;;;14.00;14.00;;;;;;;;6308980;22;45482;-74
2023/09/23 18:22:37;;;;;;;;;15.00;13.00;;;;;;;;6308984;22;45217;-74
2023/09/23 18:25:02;;;;;;;;;16.67;14.33;;;;;;;;6309581;22;45221;-73
2023/09/23 18:27:29;;;;;;;;;11.00;8.67;;;;;;;;6308597;22;45242;-73
2023/09/23 18:29:54;;;;;;;;;17.00;15.67;;;;;;;;6280616;22;47976;-73
2023/09/23 18:32:20;;;;;;;;;17.00;14.67;;;;;;;;6308881;22;45175;-72
2023/09/23 18:34:45;;;;;;;;;10.67;10.33;;;;;;;;6309666;22;45236;-73
2023/09/23 18:37:10;;;;;;;;;11.33;11.00;;;;;;;;6309232;22;45334;-73
2023/09/23 18:39:35;;;;;;;;;12.33;11.33;;;;;;;;6309010;22;46520;-74
2023/09/23 18:42:01;;;;;;;;;11.33;9.00;;;;;;;;6309078;22;45144;-73
2023/09/23 18:44:26;;;;;;;;;12.00;10.33;;;;;;;;6309186;22;45216;-73
2023/09/23 18:46:51;;;;;;;;;9.33;9.33;;;;;;;;6309507;22;45212;-74
2023/09/23 18:49:16;;;;;;;;;11.00;10.00;;;;;;;;6309132;22;46347;-74
2023/09/23 18:51:42;;;;;;;;;13.67;13.67;;;;;;;;6309696;22;45084;-74
2023/09/23 18:54:08;;;;;;;;;12.33;11.00;;;;;;;;6281319;22;45268;-74
2023/09/23 18:56:33;;;;;;;;;15.33;12.00;;;;;;;;6308839;22;45561;-73
2023/09/23 18:58:59;;;;;;;;;11.00;11.00;;;;;;;;6308484;22;46433;-73
2023/09/23 19:01:24;;;;;;;;;13.00;12.00;;;;;;;;6309655;22;45481;-76
2023/09/23 19:03:49;;;;;;;;;12.00;10.00;;;;;;;;6309359;22;45231;-76
2023/09/23 19:06:14;;;;;;;;;14.00;11.00;;;;;;;;6309231;22;45287;-76
2023/09/23 19:08:41;;;;;;;;;11.00;9.33;;;;;;;;6308746;22;46598;-75
2023/09/23 19:11:06;;;;;;;;;14.67;14.00;;;;;;;;6309479;22;45307;-76
2023/09/23 19:13:32;;;;;;;;;15.33;12.67;;;;;;;;6308545;22;45312;-75
2023/09/23 19:15:57;;;;;;;;;19.00;15.67;;;;;;;;6281251;22;45865;-75
2023/09/23 19:18:22;;;;;;;;;17.00;15.00;;;;;;;;6280491;22;48290;-75
2023/09/23 19:20:47;;;;;;;;;17.67;13.33;;;;;;;;6309431;22;45332;-75
2023/09/23 19:23:14;;;;;;;;;15.33;14.00;;;;;;;;6309207;22;45275;-75
2023/09/23 19:25:39;;;;;;;;;12.67;10.67;;;;;;;;6309229;22;45314;-75
2023/09/23 19:28:04;;;;;;;;;14.67;12.67;;;;;;;;6308332;22;45253;-75
2023/09/23 19:30:30;;;;;;;;;15.33;11.67;;;;;;;;6309249;22;45224;-75
2023/09/23 19:32:55;;;;;;;;;16.33;14.67;;;;;;;;6308545;22;45109;-75
2023/09/23 19:35:21;;;;;;;;;13.00;11.00;;;;;;;;6309155;22;45180;-76
2023/09/23 19:37:46;;;;;;;;;15.00;12.00;;;;;;;;6280281;22;46795;-76
2023/09/23 19:40:11;;;;;;;;;13.67;9.67;;;;;;;;6281512;22;45106;-76
2023/09/23 19:42:37;;;;;;;;;13.33;9.33;;;;;;;;6308901;22;45105;-76
2023/09/23 19:45:03;;;;;;;;;15.67;15.00;;;;;;;;6309240;22;45206;-76
2023/09/23 19:47:29;;;;;;;;;17.33;12.67;;;;;;;;6308786;22;45976;-74
2023/09/23 19:49:54;;;;;;;;;16.00;13.00;;;;;;;;6309192;22;45157;-78
2023/09/23 19:52:19;;;;;;;;;16.67;14.00;;;;;;;;6309095;22;45240;-76
2023/09/23 19:54:44;;;;;;;;;19.00;17.33;;;;;;;;6308884;22;45289;-75
2023/09/23 19:57:09;;;;;;;;;18.33;16.67;;;;;;;;6280913;22;47170;-76
2023/09/23 19:59:35;;;;;;;;;19.33;16.67;;;;;;;;6308362;22;45220;-76
2023/09/23 20:02:00;;;;;;;;;17.67;17.00;;;;;;;;6309172;22;45279;-77
2023/09/23 20:04:25;;;;;;;;;18.00;16.00;;;;;;;;6307809;22;46588;-76
2023/09/23 20:06:50;;;;;;;;;19.00;17.75;;;;;;;;6308430;22;45282;-77
2023/09/23 20:09:16;;;;;;;;;19.00;16.75;;;;;;;;6308882;22;45295;-74
2023/09/23 20:11:42;;;;;;;;;23.00;20.25;;;;;;;;6309200;22;45243;-76
2023/09/23 20:14:07;;;;;;;;;25.50;23.25;;;;;;;;6308256;22;45301;-76
2023/09/23 20:16:33;;;;;;;;;31.25;26.00;;;;;;;;6279703;22;45402;-76
2023/09/23 20:18:58;;;;;;;;;45.50;35.00;;;;;;;;6308472;22;45295;-76
2023/09/23 20:21:24;;;;;;;;;44.00;36.00;;;;;;;;6308913;22;45251;-77
2023/09/23 20:23:49;;;;;;;;;50.75;39.00;;;;;;;;6308410;22;45225;-77
2023/09/23 20:26:15;;;;;;;;;44.50;37.00;;;;;;;;6308535;22;46219;-77